createdAt,value
2022-09-01T00:00:01.750Z,4.30
2022-09-01T00:01:33.901Z,3.80
2022-09-01T00:02:44.645Z,4.00
2022-09-01T00:03:54.383Z,3.70
2022-09-01T00:05:02.026Z,3.50
2022-09-01T00:06:12.802Z,3.70
2022-09-01T00:07:21.163Z,3.50
2022-09-01T00:08:28.650Z,3.60
2022-09-01T00:09:36.113Z,3.80
2022-09-01T00:10:43.352Z,3.40
2022-09-01T00:11:53.766Z,3.90
2022-09-01T00:13:01.278Z,3.40
2022-09-01T00:14:24.067Z,3.60
2022-09-01T00:15:38.228Z,3.30
2022-09-01T00:16:46.206Z,3.60
2022-09-01T00:17:57.647Z,3.40
2022-09-01T00:19:05.938Z,3.50
2022-09-01T00:20:18.240Z,3.50
2022-09-01T00:21:32.091Z,3.90
2022-09-01T00:22:40.108Z,3.80
2022-09-01T00:23:48.083Z,3.70
2022-09-01T00:24:55.351Z,3.70
2022-09-01T00:26:03.497Z,3.60
2022-09-01T00:27:11.741Z,3.80
2022-09-01T00:28:21.915Z,3.90
2022-09-01T00:29:38.718Z,3.80
2022-09-01T00:30:51.626Z,3.50
2022-09-01T00:32:02.872Z,3.70
2022-09-01T00:33:11.439Z,3.90
2022-09-01T00:34:20.620Z,3.60
2022-09-01T00:35:29.408Z,3.60
2022-09-01T00:36:37.902Z,3.20
2022-09-01T00:37:45.836Z,4.00
2022-09-01T00:38:53.398Z,3.40
2022-09-01T00:40:01.227Z,3.60
2022-09-01T00:41:09.378Z,4.10
2022-09-01T00:42:16.800Z,3.70
2022-09-01T00:43:26.130Z,3.50
2022-09-01T00:44:33.822Z,3.60
2022-09-01T00:45:41.383Z,3.90
2022-09-01T00:46:55.072Z,3.90
2022-09-01T00:48:07.139Z,4.10
2022-09-01T00:49:19.327Z,3.70
2022-09-01T00:50:26.970Z,3.70
2022-09-01T00:51:35.328Z,3.70
2022-09-01T00:52:52.643Z,3.80
2022-09-01T00:54:00.328Z,4.10
2022-09-01T00:55:18.859Z,4.60
2022-09-01T00:56:28.766Z,3.60
2022-09-01T00:57:37.568Z,3.50
2022-09-01T00:58:45.220Z,3.20
2022-09-01T01:00:01.758Z,4.30
2022-09-01T01:01:12.563Z,3.90
2022-09-01T01:02:20.368Z,3.90
2022-09-01T01:03:32.045Z,4.30
2022-09-01T01:04:40.035Z,4.00
2022-09-01T01:05:55.521Z,4.30
2022-09-01T01:07:08.116Z,3.40
2022-09-01T01:08:16.419Z,3.70
2022-09-01T01:09:24.384Z,3.80
2022-09-01T01:10:34.816Z,4.20
2022-09-01T01:11:43.068Z,3.60
2022-09-01T01:12:53.140Z,3.60
2022-09-01T01:14:12.195Z,3.20
2022-09-01T01:15:19.630Z,3.40
2022-09-01T01:16:28.691Z,3.70
2022-09-01T01:17:37.451Z,3.50
2022-09-01T01:18:45.559Z,3.40
2022-09-01T01:20:16.899Z,3.30
2022-09-01T01:22:03.897Z,3.80
2022-09-01T01:23:18.365Z,3.20
2022-09-01T01:24:28.995Z,3.20
2022-09-01T01:25:46.364Z,3.10
2022-09-01T01:26:54.573Z,3.50
2022-09-01T01:28:22.107Z,3.40
2022-09-01T01:29:38.442Z,3.50
2022-09-01T01:30:52.770Z,3.50
2022-09-01T01:32:00.163Z,4.00
2022-09-01T01:33:08.238Z,3.50
2022-09-01T01:34:16.952Z,3.20
2022-09-01T01:35:27.339Z,3.50
2022-09-01T01:36:37.632Z,3.70
2022-09-01T01:37:50.143Z,3.40
2022-09-01T01:39:04.000Z,3.60
2022-09-01T01:40:17.026Z,3.90
2022-09-01T01:41:25.585Z,3.30
2022-09-01T01:42:35.200Z,3.60
2022-09-01T01:43:42.786Z,3.20
2022-09-01T01:44:51.130Z,3.50
2022-09-01T01:46:03.809Z,3.70
2022-09-01T01:47:19.209Z,4.10
2022-09-01T01:48:27.243Z,3.80
2022-09-01T01:49:34.705Z,3.20
2022-09-01T01:50:41.789Z,3.70
2022-09-01T01:51:50.394Z,3.70
2022-09-01T01:53:01.380Z,3.50
2022-09-01T01:54:10.378Z,3.70
2022-09-01T01:55:21.351Z,3.60
2022-09-01T01:56:29.999Z,3.40
2022-09-01T01:57:39.313Z,3.90
2022-09-01T01:58:47.870Z,3.70
2022-09-01T01:59:57.129Z,3.20
2022-09-01T02:01:06.017Z,3.30
2022-09-01T02:02:15.090Z,3.10
2022-09-01T02:03:28.088Z,3.40
2022-09-01T02:04:37.172Z,3.40
2022-09-01T02:05:48.688Z,3.40
2022-09-01T02:06:57.259Z,3.40
2022-09-01T02:08:10.030Z,3.10
2022-09-01T02:09:22.474Z,3.30
2022-09-01T02:10:33.624Z,3.30
2022-09-01T02:11:41.878Z,3.40
2022-09-01T02:12:51.143Z,2.90
2022-09-01T02:13:58.866Z,3.10
2022-09-01T02:15:08.937Z,3.00
2022-09-01T02:16:18.554Z,3.10
2022-09-01T02:17:26.956Z,2.90
2022-09-01T02:18:37.377Z,3.00
2022-09-01T02:19:44.635Z,2.80
2022-09-01T02:20:52.199Z,2.90
2022-09-01T02:22:01.411Z,3.20
2022-09-01T02:23:13.039Z,2.80
2022-09-01T02:24:20.585Z,3.00
2022-09-01T02:25:29.664Z,2.80
2022-09-01T02:26:40.084Z,2.60
2022-09-01T02:27:51.012Z,2.70
2022-09-01T02:28:58.687Z,2.50
2022-09-01T02:30:12.087Z,2.60
2022-09-01T02:31:21.328Z,2.70
2022-09-01T02:32:28.937Z,2.70
2022-09-01T02:33:36.485Z,2.80
2022-09-01T02:34:45.631Z,2.60
2022-09-01T02:35:54.518Z,2.60
2022-09-01T02:37:01.958Z,2.40
2022-09-01T02:38:09.878Z,2.30
2022-09-01T02:39:25.502Z,2.70
2022-09-01T02:40:34.468Z,2.50
2022-09-01T02:41:42.557Z,2.30
2022-09-01T02:42:54.765Z,2.40
2022-09-01T02:44:03.643Z,2.50
2022-09-01T02:45:13.452Z,2.90
2022-09-01T02:46:24.939Z,2.60
2022-09-01T02:47:32.861Z,3.00
2022-09-01T02:48:42.478Z,2.40
2022-09-01T02:49:49.706Z,2.60
2022-09-01T02:50:58.479Z,2.60
2022-09-01T02:52:05.979Z,2.90
2022-09-01T02:53:16.961Z,2.70
2022-09-01T02:54:25.957Z,2.90
2022-09-01T02:55:33.712Z,2.40
2022-09-01T02:56:41.126Z,2.60
2022-09-01T02:57:49.635Z,2.70
2022-09-01T02:58:58.886Z,2.80
2022-09-01T03:00:23.051Z,2.60
2022-09-01T03:01:31.816Z,2.70
2022-09-01T03:02:41.021Z,2.40
2022-09-01T03:03:48.964Z,2.60
2022-09-01T03:04:56.957Z,2.30
2022-09-01T03:06:04.513Z,2.30
2022-09-01T03:07:12.208Z,2.50
2022-09-01T03:08:20.173Z,2.40
2022-09-01T03:09:27.773Z,2.40
2022-09-01T03:10:37.484Z,2.60
2022-09-01T03:11:46.683Z,2.40
2022-09-01T03:12:53.973Z,3.00
2022-09-01T03:14:01.418Z,2.70
2022-09-01T03:15:09.192Z,2.50
2022-09-01T03:16:21.120Z,3.00
2022-09-01T03:17:29.594Z,2.60
2022-09-01T03:18:39.708Z,2.80
2022-09-01T03:19:48.228Z,2.90
2022-09-01T03:20:55.668Z,3.00
2022-09-01T03:22:02.748Z,2.80
2022-09-01T03:23:11.741Z,3.00
2022-09-01T03:24:21.491Z,2.60
2022-09-01T03:25:31.115Z,3.10
2022-09-01T03:26:38.985Z,2.50
2022-09-01T03:27:47.436Z,2.50
2022-09-01T03:28:55.421Z,2.90
2022-09-01T03:30:03.269Z,2.80
2022-09-01T03:31:10.601Z,2.80
2022-09-01T03:32:19.007Z,2.60
2022-09-01T03:33:29.151Z,2.40
2022-09-01T03:34:38.091Z,2.60
2022-09-01T03:35:46.369Z,2.50
2022-09-01T03:36:53.493Z,2.70
2022-09-01T03:38:06.992Z,2.80
2022-09-01T03:39:16.738Z,2.60
2022-09-01T03:40:25.429Z,2.70
2022-09-01T03:41:33.022Z,2.60
2022-09-01T03:42:40.555Z,2.50
2022-09-01T03:43:48.941Z,2.70
2022-09-01T03:44:57.907Z,2.90
2022-09-01T03:46:05.304Z,2.80
2022-09-01T03:47:12.643Z,2.90
2022-09-01T03:48:20.667Z,2.60
2022-09-01T03:49:29.154Z,2.70
2022-09-01T03:50:42.243Z,2.60
2022-09-01T03:51:50.013Z,2.80
2022-09-01T03:52:59.736Z,2.70
2022-09-01T03:54:06.849Z,2.80
2022-09-01T03:55:14.992Z,3.20
2022-09-01T03:56:23.010Z,2.70
2022-09-01T03:57:32.453Z,3.00
2022-09-01T03:58:40.473Z,3.00
2022-09-01T03:59:48.446Z,3.00
2022-09-01T04:00:57.312Z,2.80
2022-09-01T04:02:04.779Z,3.30
2022-09-01T04:03:14.050Z,3.10
2022-09-01T04:04:21.387Z,3.30
2022-09-01T04:05:32.499Z,3.00
2022-09-01T04:06:40.443Z,2.80
2022-09-01T04:07:49.990Z,3.00
2022-09-01T04:09:03.972Z,3.20
2022-09-01T04:10:12.875Z,2.80
2022-09-01T04:11:21.819Z,3.00
2022-09-01T04:12:29.562Z,3.30
2022-09-01T04:13:38.226Z,3.10
2022-09-01T04:14:49.662Z,2.90
2022-09-01T04:15:57.771Z,3.20
2022-09-01T04:17:28.632Z,3.10
2022-09-01T04:18:44.601Z,2.60
2022-09-01T04:19:52.405Z,2.90
2022-09-01T04:21:00.780Z,2.70
2022-09-01T04:22:09.884Z,3.30
2022-09-01T04:23:35.406Z,2.90
2022-09-01T04:24:51.352Z,3.00
2022-09-01T04:26:15.546Z,2.80
2022-09-01T04:27:28.607Z,2.70
2022-09-01T04:28:39.092Z,2.90
2022-09-01T04:29:48.906Z,3.00
2022-09-01T04:30:57.769Z,3.00
2022-09-01T04:32:13.447Z,3.10
2022-09-01T04:33:29.032Z,2.90
2022-09-01T04:34:39.716Z,3.20
2022-09-01T04:35:48.092Z,3.10
2022-09-01T04:36:56.879Z,2.90
2022-09-01T04:38:04.294Z,3.20
2022-09-01T04:39:13.116Z,2.40
2022-09-01T04:40:25.090Z,3.10
2022-09-01T04:41:35.826Z,2.80
2022-09-01T04:42:44.197Z,3.00
2022-09-01T04:43:53.390Z,3.00
2022-09-01T04:45:10.744Z,2.90
2022-09-01T04:46:22.671Z,2.70
2022-09-01T04:47:35.957Z,2.80
2022-09-01T04:48:46.557Z,3.00
2022-09-01T04:49:59.465Z,3.00
2022-09-01T04:51:12.141Z,2.90
2022-09-01T04:52:34.676Z,3.00
2022-09-01T04:53:50.387Z,3.40
2022-09-01T04:54:58.336Z,3.00
2022-09-01T04:56:08.099Z,2.90
2022-09-01T04:57:20.385Z,2.90
2022-09-01T04:58:28.384Z,2.90
2022-09-01T04:59:35.740Z,3.20
2022-09-01T05:00:43.298Z,3.00
2022-09-01T05:01:51.699Z,3.10
2022-09-01T05:03:06.249Z,3.10
2022-09-01T05:04:47.969Z,2.80
2022-09-01T05:05:56.572Z,3.30
2022-09-01T05:07:06.799Z,2.70
2022-09-01T05:08:23.580Z,3.00
2022-09-01T05:09:36.976Z,3.70
2022-09-01T05:11:03.240Z,3.10
2022-09-01T05:12:30.799Z,2.90
2022-09-01T05:13:40.323Z,2.90
2022-09-01T05:14:48.792Z,3.10
2022-09-01T05:16:07.565Z,3.00
2022-09-01T05:17:18.991Z,3.00
2022-09-01T05:18:29.461Z,3.20
2022-09-01T05:19:38.625Z,3.30
2022-09-01T05:20:48.327Z,3.40
2022-09-01T05:21:59.359Z,3.40
2022-09-01T05:23:06.520Z,3.40
2022-09-01T05:24:16.589Z,3.20
2022-09-01T05:25:24.932Z,3.30
2022-09-01T05:26:35.339Z,3.60
2022-09-01T05:27:43.705Z,3.60
2022-09-01T05:28:52.125Z,3.80
2022-09-01T05:30:01.536Z,3.40
2022-09-01T05:31:11.271Z,3.80
2022-09-01T05:32:18.706Z,3.80
2022-09-01T05:33:26.174Z,3.60
2022-09-01T05:34:37.910Z,3.60
2022-09-01T05:35:54.347Z,4.30
2022-09-01T05:37:02.172Z,3.90
2022-09-01T05:38:15.261Z,4.20
2022-09-01T05:39:23.265Z,4.20
2022-09-01T05:40:30.588Z,4.40
2022-09-01T05:41:38.552Z,4.00
2022-09-01T05:42:46.276Z,4.10
2022-09-01T05:43:59.951Z,4.20
2022-09-01T05:45:09.659Z,3.90
2022-09-01T05:46:18.267Z,3.60
2022-09-01T05:47:27.578Z,3.30
2022-09-01T05:48:40.935Z,3.60
2022-09-01T05:49:49.252Z,3.50
2022-09-01T05:50:59.380Z,3.60
2022-09-01T05:52:06.940Z,3.60
2022-09-01T05:53:18.737Z,3.60
2022-09-01T05:54:31.786Z,3.80
2022-09-01T05:55:42.197Z,3.30
2022-09-01T05:56:50.313Z,3.30
2022-09-01T05:58:04.464Z,3.20
2022-09-01T05:59:27.955Z,3.50
2022-09-01T06:00:40.103Z,3.00
2022-09-01T06:01:50.365Z,3.30
2022-09-01T06:02:59.892Z,3.00
2022-09-01T06:04:07.896Z,3.50
2022-09-01T06:05:15.536Z,3.30
2022-09-01T06:06:36.733Z,3.50
2022-09-01T06:07:52.292Z,3.50
2022-09-01T06:09:01.705Z,3.20
2022-09-01T06:10:09.510Z,2.90
2022-09-01T06:11:18.887Z,3.60
2022-09-01T06:12:26.628Z,3.40
2022-09-01T06:13:34.020Z,3.40
2022-09-01T06:14:47.243Z,3.40
2022-09-01T06:15:56.398Z,3.10
2022-09-01T06:17:05.478Z,3.60
2022-09-01T06:18:14.959Z,3.20
2022-09-01T06:19:31.565Z,3.50
2022-09-01T06:20:47.080Z,3.40
2022-09-01T06:21:55.094Z,3.50
2022-09-01T06:23:03.700Z,4.20
2022-09-01T06:24:11.024Z,3.50
2022-09-01T06:25:19.845Z,3.40
2022-09-01T06:26:34.392Z,3.60
2022-09-01T06:27:43.809Z,3.70
2022-09-01T06:28:56.322Z,3.50
2022-09-01T06:30:04.252Z,3.40
2022-09-01T06:31:14.444Z,3.30
2022-09-01T06:32:22.193Z,3.50
2022-09-01T06:33:29.803Z,3.40
2022-09-01T06:34:37.677Z,3.80
2022-09-01T06:35:48.784Z,3.10
2022-09-01T06:36:56.690Z,3.40
2022-09-01T06:38:04.256Z,3.40
2022-09-01T06:39:23.274Z,3.30
2022-09-01T06:40:33.773Z,3.50
2022-09-01T06:41:42.203Z,3.60
2022-09-01T06:42:52.448Z,3.80
2022-09-01T06:44:02.085Z,3.80
2022-09-01T06:45:11.586Z,3.10
2022-09-01T06:46:21.435Z,3.70
2022-09-01T06:47:29.922Z,3.80
2022-09-01T06:48:47.847Z,3.50
2022-09-01T06:50:00.326Z,3.20
2022-09-01T06:51:20.100Z,3.90
2022-09-01T06:53:32.145Z,3.60
2022-09-01T06:53:58.187Z,3.80
2022-09-01T06:55:15.745Z,3.70
2022-09-01T06:56:23.714Z,3.50
2022-09-01T06:59:00.074Z,3.80
2022-09-01T07:00:19.419Z,3.50
2022-09-01T07:01:27.567Z,4.30
2022-09-01T07:02:35.334Z,4.00
2022-09-01T07:04:12.500Z,3.50
2022-09-01T07:07:53.206Z,3.90
2022-09-01T07:08:23.360Z,3.60
2022-09-01T07:10:05.743Z,3.50
2022-09-01T07:13:07.820Z,4.20
2022-09-01T07:14:17.875Z,3.80
2022-09-01T07:17:22.873Z,4.00
2022-09-01T07:18:22.835Z,4.20
2022-09-01T07:21:36.592Z,4.90
2022-09-01T07:24:11.476Z,4.10
2022-09-01T07:25:34.909Z,3.60
2022-09-01T07:27:08.015Z,3.60
2022-09-01T07:28:17.102Z,4.00
2022-09-01T07:29:27.154Z,3.60
2022-09-01T07:30:36.572Z,3.90
2022-09-01T07:31:49.421Z,3.90
2022-09-01T07:32:56.922Z,3.70
2022-09-01T07:36:24.769Z,3.90
2022-09-01T07:39:48.510Z,4.40
2022-09-01T07:44:15.118Z,3.60
2022-09-01T07:46:00.767Z,4.10
2022-09-01T07:49:02.827Z,4.50
2022-09-01T07:51:35.205Z,4.50
2022-09-01T07:51:56.490Z,4.40
2022-09-01T07:53:07.805Z,4.30
2022-09-01T07:54:15.341Z,5.20
2022-09-01T07:55:22.659Z,4.60
2022-09-01T07:56:39.463Z,4.60
2022-09-01T07:57:50.355Z,4.70
2022-09-01T07:58:58.468Z,4.10
2022-09-01T08:00:07.134Z,4.40
2022-09-01T08:01:26.967Z,3.80
2022-09-01T08:02:34.366Z,3.70
2022-09-01T08:03:42.414Z,3.90
2022-09-01T08:04:50.747Z,4.10
2022-09-01T08:06:02.255Z,3.80
2022-09-01T08:07:15.390Z,3.90
2022-09-01T08:08:28.439Z,3.40
2022-09-01T08:09:44.165Z,3.90
2022-09-01T08:10:54.368Z,3.20
2022-09-01T08:12:02.865Z,3.80
2022-09-01T08:13:15.617Z,3.90
2022-09-01T08:14:23.297Z,3.10
2022-09-01T08:15:40.376Z,3.50
2022-09-01T08:16:53.010Z,3.70
2022-09-01T08:18:01.222Z,3.60
2022-09-01T08:19:19.131Z,3.60
2022-09-01T08:20:46.909Z,3.20
2022-09-01T08:22:05.354Z,3.50
2022-09-01T08:23:34.086Z,3.40
2022-09-01T08:24:43.359Z,3.30
2022-09-01T08:25:51.907Z,4.10
2022-09-01T08:26:59.758Z,4.10
2022-09-01T08:28:09.672Z,3.50
2022-09-01T08:29:18.244Z,4.50
2022-09-01T08:30:26.488Z,3.90
2022-09-01T08:31:37.827Z,4.60
2022-09-01T08:32:45.570Z,4.30
2022-09-01T08:33:54.592Z,4.10
2022-09-01T08:35:02.138Z,4.00
2022-09-01T08:36:12.582Z,4.20
2022-09-01T08:37:21.538Z,3.90
2022-09-01T08:38:30.564Z,3.80
2022-09-01T08:39:39.371Z,3.70
2022-09-01T08:40:56.415Z,4.30
2022-09-01T08:42:19.616Z,4.30
2022-09-01T08:43:50.589Z,3.90
2022-09-01T08:45:11.535Z,3.90
2022-09-01T08:46:39.392Z,4.20
2022-09-01T08:48:15.327Z,3.70
2022-09-01T08:49:26.498Z,3.60
2022-09-01T08:50:51.997Z,3.80
2022-09-01T08:52:26.961Z,3.80
2022-09-01T08:53:43.238Z,3.70
2022-09-01T08:54:56.410Z,4.10
2022-09-01T08:56:04.197Z,4.30
2022-09-01T08:57:33.615Z,4.10
2022-09-01T08:59:02.718Z,4.30
2022-09-01T09:01:13.667Z,3.90
2022-09-01T09:02:51.818Z,4.00
2022-09-01T09:04:36.169Z,4.20
2022-09-01T09:06:07.247Z,4.10
2022-09-01T09:07:37.749Z,4.00
2022-09-01T09:08:45.903Z,4.50
2022-09-01T09:10:15.550Z,4.50
2022-09-01T09:11:48.907Z,4.20
2022-09-01T09:13:00.585Z,4.40
2022-09-01T09:14:30.080Z,4.20
2022-09-01T09:16:14.263Z,4.40
2022-09-01T09:17:24.486Z,4.80
2022-09-01T09:18:58.045Z,5.20
2022-09-01T09:20:09.167Z,4.20
2022-09-01T09:21:48.128Z,3.90
2022-09-01T09:22:58.523Z,4.20
2022-09-01T09:24:22.375Z,4.30
2022-09-01T09:25:34.356Z,4.00
2022-09-01T09:26:42.949Z,4.50
2022-09-01T09:28:00.426Z,4.30
2022-09-01T09:29:08.850Z,4.90
2022-09-01T09:30:26.487Z,4.30
2022-09-01T09:31:50.573Z,4.60
2022-09-01T09:34:42.973Z,4.50
2022-09-01T09:35:49.923Z,4.10
2022-09-01T09:36:57.331Z,3.80
2022-09-01T09:38:46.039Z,4.10
2022-09-01T09:40:11.601Z,3.90
2022-09-01T09:41:26.093Z,4.70
2022-09-01T09:42:36.681Z,4.70
2022-09-01T09:44:06.954Z,4.10
2022-09-01T09:45:27.921Z,4.50
2022-09-01T09:46:41.159Z,4.10
2022-09-01T09:47:49.554Z,4.50
2022-09-01T09:49:17.089Z,4.70
2022-09-01T09:50:27.450Z,4.20
2022-09-01T09:51:34.444Z,4.20
2022-09-01T09:52:41.886Z,4.00
2022-09-01T09:53:49.258Z,4.00
2022-09-01T09:55:02.499Z,5.10
2022-09-01T09:56:19.856Z,4.20
2022-09-01T09:57:27.032Z,4.70
2022-09-01T09:58:40.856Z,5.00
2022-09-01T10:00:07.998Z,5.20
2022-09-01T10:01:25.220Z,3.90
2022-09-01T10:02:40.976Z,4.50
2022-09-01T10:03:52.342Z,4.10
2022-09-01T10:05:00.583Z,4.30
2022-09-01T10:06:08.706Z,4.20
2022-09-01T10:07:27.604Z,4.50
2022-09-01T10:08:49.297Z,4.30
2022-09-01T10:09:57.165Z,3.90
2022-09-01T10:11:04.025Z,4.40
2022-09-01T10:12:11.653Z,4.50
2022-09-01T10:13:24.474Z,4.40
2022-09-01T10:14:55.442Z,4.10
2022-09-01T10:16:05.491Z,4.10
2022-09-01T10:17:17.765Z,4.40
2022-09-01T10:18:29.623Z,4.00
2022-09-01T10:19:37.930Z,4.10
2022-09-01T10:21:09.485Z,4.20
2022-09-01T10:22:16.632Z,4.30
2022-09-01T10:23:23.787Z,5.00
2022-09-01T10:24:45.376Z,3.60
2022-09-01T10:25:53.666Z,3.90
2022-09-01T10:27:09.680Z,4.00
2022-09-01T10:28:27.033Z,4.50
2022-09-01T10:29:48.689Z,4.00
2022-09-01T10:30:57.882Z,4.50
2022-09-01T10:32:31.352Z,4.50
2022-09-01T10:33:37.553Z,4.00
2022-09-01T10:34:44.635Z,4.10
2022-09-01T10:35:54.834Z,4.00
2022-09-01T10:37:03.213Z,4.30
2022-09-01T10:38:18.364Z,4.20
2022-09-01T10:39:30.514Z,4.30
2022-09-01T10:40:50.651Z,3.90
2022-09-01T10:42:00.155Z,4.70
2022-09-01T10:43:46.717Z,3.90
2022-09-01T10:45:00.616Z,4.00
2022-09-01T10:46:38.836Z,3.80
2022-09-01T10:47:48.546Z,3.90
2022-09-01T10:49:03.251Z,4.10
2022-09-01T10:50:36.753Z,4.20
2022-09-01T10:51:56.390Z,4.00
2022-09-01T10:53:06.026Z,4.80
2022-09-01T10:54:52.598Z,4.70
2022-09-01T10:56:35.493Z,4.60
2022-09-01T10:57:50.269Z,4.00
2022-09-01T11:00:39.409Z,5.20
2022-09-01T11:01:49.485Z,4.10
2022-09-01T11:03:32.854Z,4.10
2022-09-01T11:04:47.406Z,4.60
2022-09-01T11:06:10.998Z,4.10
2022-09-01T11:07:38.836Z,3.90
2022-09-01T11:08:57.143Z,3.60
2022-09-01T11:10:32.101Z,3.60
2022-09-01T11:11:45.900Z,3.90
2022-09-01T11:13:06.695Z,4.40
2022-09-01T11:14:24.232Z,4.00
2022-09-01T11:15:45.050Z,4.30
2022-09-01T11:17:17.788Z,4.20
2022-09-01T11:18:30.707Z,3.70
2022-09-01T11:19:44.445Z,3.70
2022-09-01T11:20:52.479Z,4.50
2022-09-01T11:22:13.782Z,4.10
2022-09-01T11:23:33.395Z,3.90
2022-09-01T11:24:41.632Z,3.70
2022-09-01T11:27:52.770Z,3.70
2022-09-01T11:29:01.400Z,4.10
2022-09-01T11:30:11.633Z,4.00
2022-09-01T11:31:24.532Z,4.60
2022-09-01T11:32:40.129Z,4.20
2022-09-01T11:34:14.453Z,4.50
2022-09-01T11:35:23.333Z,4.70
2022-09-01T11:36:54.166Z,4.10
2022-09-01T11:38:05.662Z,4.30
2022-09-01T11:39:24.429Z,4.20
2022-09-01T11:40:35.834Z,4.20
2022-09-01T11:41:43.209Z,4.30
2022-09-01T11:42:50.239Z,3.60
2022-09-01T11:43:59.504Z,4.10
2022-09-01T11:45:32.840Z,4.10
2022-09-01T11:46:44.752Z,4.00
2022-09-01T11:47:54.037Z,4.20
2022-09-01T11:49:03.734Z,4.10
2022-09-01T11:50:30.840Z,4.30
2022-09-01T11:51:56.061Z,4.10
2022-09-01T11:53:14.091Z,4.70
2022-09-01T11:54:21.355Z,4.40
2022-09-01T11:55:38.458Z,4.80
2022-09-01T11:56:45.727Z,5.00
2022-09-01T11:57:53.011Z,5.70
2022-09-01T11:59:00.060Z,5.00
2022-09-01T12:00:12.800Z,4.70
2022-09-01T12:01:34.459Z,4.60
2022-09-01T12:02:49.419Z,5.40
2022-09-01T12:03:56.830Z,4.20
2022-09-01T12:05:05.211Z,5.00
2022-09-01T12:06:13.537Z,4.50
2022-09-01T12:07:46.438Z,4.50
2022-09-01T12:09:00.970Z,4.80
2022-09-01T12:10:17.715Z,4.80
2022-09-01T12:11:35.203Z,4.90
2022-09-01T12:12:42.550Z,4.80
2022-09-01T12:14:08.955Z,5.00
2022-09-01T12:15:26.840Z,4.10
2022-09-01T12:16:36.609Z,4.90
2022-09-01T12:17:44.176Z,4.70
2022-09-01T12:18:54.675Z,4.70
2022-09-01T12:20:28.669Z,5.30
2022-09-01T12:21:45.502Z,6.00
2022-09-01T12:22:52.638Z,5.70
2022-09-01T12:24:16.142Z,5.10
2022-09-01T12:25:24.944Z,5.50
2022-09-01T12:26:33.387Z,5.00
2022-09-01T12:27:40.827Z,5.20
2022-09-01T12:28:50.230Z,5.50
2022-09-01T12:29:57.947Z,4.70
2022-09-01T12:31:08.767Z,4.70
2022-09-01T12:32:16.062Z,6.40
2022-09-01T12:33:23.905Z,5.70
2022-09-01T12:34:40.603Z,5.00
2022-09-01T12:35:47.926Z,4.50
2022-09-01T12:37:14.154Z,4.90
2022-09-01T12:38:21.551Z,4.80
2022-09-01T12:39:29.488Z,5.20
2022-09-01T12:40:38.619Z,5.10
2022-09-01T12:41:48.685Z,4.90
2022-09-01T12:42:57.459Z,4.80
2022-09-01T12:44:55.315Z,5.40
2022-09-01T12:46:04.458Z,4.70
2022-09-01T12:47:39.864Z,4.70
2022-09-01T12:48:49.546Z,4.70
2022-09-01T12:49:57.255Z,5.00
2022-09-01T12:51:29.204Z,5.20
2022-09-01T12:52:44.670Z,4.80
2022-09-01T12:54:04.909Z,4.90
2022-09-01T12:56:50.425Z,4.90
2022-09-01T12:58:02.117Z,4.70
2022-09-01T12:59:36.204Z,5.20
2022-09-01T13:01:02.354Z,5.10
2022-09-01T13:02:28.284Z,5.00
2022-09-01T13:03:35.698Z,4.90
2022-09-01T13:04:43.469Z,4.90
2022-09-01T13:05:54.709Z,5.00
2022-09-01T13:07:06.468Z,5.50
2022-09-01T13:08:20.648Z,5.10
2022-09-01T13:09:28.610Z,4.90
2022-09-01T13:10:39.268Z,4.90
2022-09-01T13:13:16.765Z,5.20
2022-09-01T13:14:25.359Z,5.70
2022-09-01T13:15:34.960Z,5.00
2022-09-01T13:16:45.814Z,4.80
2022-09-01T13:17:53.607Z,5.10
2022-09-01T13:19:26.323Z,5.10
2022-09-01T13:20:28.545Z,5.70
2022-09-01T13:21:36.410Z,5.00
2022-09-01T13:22:45.767Z,5.10
2022-09-01T13:23:53.105Z,4.50
2022-09-01T13:25:00.329Z,5.20
2022-09-01T13:26:07.570Z,4.50
2022-09-01T13:27:22.710Z,4.80
2022-09-01T13:28:30.819Z,5.00
2022-09-01T13:29:38.737Z,4.70
2022-09-01T13:30:49.494Z,5.70
2022-09-01T13:33:30.240Z,4.90
2022-09-01T13:34:40.361Z,4.80
2022-09-01T13:35:49.014Z,5.30
2022-09-01T13:36:57.162Z,6.30
2022-09-01T13:38:04.655Z,5.30
2022-09-01T13:39:11.778Z,6.10
2022-09-01T13:40:21.234Z,5.60
2022-09-01T13:41:31.372Z,5.40
2022-09-01T13:42:41.193Z,6.20
2022-09-01T13:43:50.240Z,6.50
2022-09-01T13:44:58.332Z,7.00
2022-09-01T13:46:05.615Z,6.70
2022-09-01T13:47:29.250Z,6.00
2022-09-01T13:50:10.879Z,6.20
2022-09-01T13:51:30.140Z,5.80
2022-09-01T13:52:40.132Z,6.00
2022-09-01T13:53:49.196Z,6.50
2022-09-01T13:54:57.660Z,5.50
2022-09-01T13:56:05.845Z,6.00
2022-09-01T13:57:13.981Z,6.40
2022-09-01T13:58:22.183Z,6.10
2022-09-01T13:59:32.331Z,5.10
2022-09-01T14:00:42.313Z,6.00
2022-09-01T14:01:49.534Z,5.80
2022-09-01T14:02:57.810Z,6.60
2022-09-01T14:04:07.567Z,6.50
2022-09-01T14:05:14.792Z,7.60
2022-09-01T14:06:22.649Z,7.60
2022-09-01T14:07:31.344Z,6.60
2022-09-01T14:08:39.172Z,6.20
2022-09-01T14:09:46.976Z,6.10
2022-09-01T14:10:54.627Z,6.10
2022-09-01T14:12:01.785Z,6.30
2022-09-01T14:13:08.870Z,5.60
2022-09-01T14:14:16.826Z,6.30
2022-09-01T14:15:27.206Z,6.50
2022-09-01T14:16:35.212Z,6.40
2022-09-01T14:17:42.965Z,5.80
2022-09-01T14:18:50.030Z,6.30
2022-09-01T14:19:58.719Z,6.60
2022-09-01T14:21:05.792Z,5.90
2022-09-01T14:22:13.140Z,7.00
2022-09-01T14:23:20.459Z,6.70
2022-09-01T14:24:27.820Z,6.40
2022-09-01T14:25:36.366Z,6.80
2022-09-01T14:26:45.388Z,7.00
2022-09-01T14:27:54.987Z,6.80
2022-09-01T14:29:04.012Z,6.80
2022-09-01T14:30:16.572Z,7.40
2022-09-01T14:31:25.644Z,7.30
2022-09-01T14:32:35.806Z,7.20
2022-09-01T14:33:45.215Z,7.40
2022-09-01T14:34:53.658Z,8.10
2022-09-01T14:36:02.057Z,6.90
2022-09-01T14:37:09.202Z,7.40
2022-09-01T14:38:17.393Z,6.50
2022-09-01T14:39:29.622Z,7.80
2022-09-01T14:40:39.976Z,6.50
2022-09-01T14:41:49.388Z,6.00
2022-09-01T14:42:58.218Z,6.80
2022-09-01T14:44:05.723Z,7.00
2022-09-01T14:45:14.065Z,6.80
2022-09-01T14:46:24.600Z,7.00
2022-09-01T14:47:34.188Z,6.50
2022-09-01T14:48:43.012Z,6.40
2022-09-01T14:49:52.695Z,6.10
2022-09-01T14:51:02.345Z,7.30
2022-09-01T14:52:10.981Z,6.60
2022-09-01T14:53:20.967Z,6.10
2022-09-01T14:54:29.103Z,6.10
2022-09-01T14:55:39.365Z,5.80
2022-09-01T14:58:17.277Z,6.00
2022-09-01T14:59:25.497Z,6.30
2022-09-01T15:00:37.648Z,6.10
2022-09-01T15:01:46.711Z,7.00
2022-09-01T15:02:54.700Z,6.30
2022-09-01T15:04:02.650Z,6.50
2022-09-01T15:05:10.643Z,6.80
2022-09-01T15:06:20.646Z,6.20
2022-09-01T15:07:29.488Z,6.60
2022-09-01T15:08:38.628Z,6.00
2022-09-01T15:09:47.874Z,6.70
2022-09-01T15:10:58.148Z,6.90
2022-09-01T15:12:06.459Z,6.30
2022-09-01T15:13:15.163Z,6.80
2022-09-01T15:14:24.157Z,6.70
2022-09-01T15:15:34.549Z,6.60
2022-09-01T15:16:43.962Z,6.70
2022-09-01T15:17:52.626Z,6.40
2022-09-01T15:19:00.613Z,7.00
2022-09-01T15:20:27.343Z,6.90
2022-09-01T15:21:36.284Z,7.30
2022-09-01T15:22:45.165Z,6.30
2022-09-01T15:23:53.747Z,6.70
2022-09-01T15:25:02.205Z,6.30
2022-09-01T15:26:09.831Z,6.90
2022-09-01T15:27:18.691Z,6.80
2022-09-01T15:28:27.309Z,6.60
2022-09-01T15:29:36.445Z,6.80
2022-09-01T15:30:46.378Z,7.00
2022-09-01T15:31:54.811Z,6.90
2022-09-01T15:33:03.643Z,6.90
2022-09-01T15:34:16.079Z,6.70
2022-09-01T15:35:24.587Z,6.60
2022-09-01T15:36:33.803Z,6.90
2022-09-01T15:37:42.656Z,6.30
2022-09-01T15:38:50.797Z,6.90
2022-09-01T15:39:59.286Z,6.20
2022-09-01T15:41:06.659Z,6.40
2022-09-01T15:43:23.003Z,6.50
2022-09-01T15:44:31.842Z,6.60
2022-09-01T15:45:45.811Z,6.60
2022-09-01T15:46:53.818Z,6.20
2022-09-01T15:48:10.723Z,6.60
2022-09-01T15:49:28.362Z,5.80
2022-09-01T15:50:37.400Z,5.90
2022-09-01T15:51:47.236Z,6.50
2022-09-01T15:53:03.566Z,6.00
2022-09-01T15:54:14.015Z,5.90
2022-09-01T15:55:26.773Z,6.80
2022-09-01T15:56:35.175Z,6.10
2022-09-01T15:57:44.243Z,6.80
2022-09-01T15:59:07.502Z,5.90
2022-09-01T16:00:16.941Z,6.40
2022-09-01T16:01:25.272Z,5.70
2022-09-01T16:02:34.197Z,6.70
2022-09-01T16:03:43.358Z,6.40
2022-09-01T16:04:52.018Z,7.00
2022-09-01T16:06:01.857Z,6.20
2022-09-01T16:07:09.083Z,5.60
2022-09-01T16:08:17.259Z,6.20
2022-09-01T16:09:28.064Z,5.90
2022-09-01T16:10:37.135Z,6.90
2022-09-01T16:11:47.115Z,6.60
2022-09-01T16:12:55.271Z,5.60
2022-09-01T16:14:03.172Z,5.90
2022-09-01T16:15:11.273Z,5.60
2022-09-01T16:16:45.937Z,6.30
2022-09-01T16:18:03.598Z,5.60
2022-09-01T16:19:24.373Z,6.30
2022-09-01T16:21:10.029Z,6.10
2022-09-01T16:22:31.219Z,5.90
2022-09-01T16:24:00.616Z,6.30
2022-09-01T16:25:17.629Z,6.20
2022-09-01T16:26:26.134Z,6.00
2022-09-01T16:27:43.143Z,7.20
2022-09-01T16:28:53.237Z,6.10
2022-09-01T16:30:15.192Z,6.20
2022-09-01T16:31:28.060Z,6.20
2022-09-01T16:32:37.114Z,6.30
2022-09-01T16:34:03.563Z,7.30
2022-09-01T16:35:12.971Z,6.30
2022-09-01T16:36:44.063Z,6.50
2022-09-01T16:38:01.313Z,6.60
2022-09-01T16:39:31.569Z,6.80
2022-09-01T16:41:05.598Z,6.20
2022-09-01T16:42:49.065Z,6.10